Aviation Digital Data Service (ADDS)

Output produced by TAFs form (0817 UTC 25 April 2014)
found at http://www.aviationweather.gov/adds/tafs/
 
KPSF 250526Z 2506/2606 31005KT P6SM SKC 
     FM251200 VRB05KT P6SM SCT100 BKN200 
     FM251500 24007KT P6SM BKN100 OVC200 
     FM260000 17008KT P6SM OVC070 
     PROB30 2602/2606 6SM -SHRA OVC035